Malone, Alabama
Current Conditions -  °F | °C
As of 5:53 AM on Monday 22 Dec 2014 (Local Time) from KANB Reporting Station
Overcast Overcast  
Wind Chill: 46°   Ceiling: 700
Heat Index: 49°   Visibility: 10mi
Dew Point: 46°   Wind: 7mph
Humidity: 90%   Direction: 80°E
Pressure: 29.99"   Gusts: NA
Location:  33.2829°N, 85.491°W
Report Text: KANB 221153Z AUTO 08006KT 10SM OVC007 09/08 A2999 RMK AO2 SLP157 T00940078 10100 20094 56004
Loading
Personal Weather Stations






























Interactive Weather Map New forecast layout! Learn more

10-Day Weather Forecast

Advertisements
Track Severe Weather on mobile